Time;durP1;ratioP1;P1;durP2;ratioP2;P2;SDS_P1;SDS_P2;PMS_P1;PMS_P2;Temp;Humidity;BMP_temperature;BMP_pressure;BME280_temperature;BME280_humidity;BME280_pressure;Samples;Min_cycle;Max_cycle;Signal;HPM_P1;HPM_P2
2023/12/21 00:00:04;;;;;;;7.72;4.07;;;;;;;7.57;100.00;100695.28;4945266;29;20037;-90
2023/12/21 00:02:29;;;;;;;9.50;4.70;;;;;;;7.57;100.00;100682.31;4927826;29;20074;-91
2023/12/21 00:04:55;;;;;;;7.82;4.45;;;;;;;7.57;100.00;100675.44;4930203;29;20503;-91
2023/12/21 00:07:20;;;;;;;9.20;4.72;;;;;;;7.59;100.00;100667.63;4909476;29;20070;-91
2023/12/21 00:09:46;;;;;;;9.82;4.90;;;;;;;7.59;100.00;100658.16;4907169;29;20407;-92
2023/12/21 00:12:12;;;;;;;8.30;4.20;;;;;;;7.59;100.00;100647.78;4923887;29;20023;-93
2023/12/21 00:14:37;;;;;;;7.15;4.13;;;;;;;7.58;100.00;100640.03;4927624;29;20472;-90
2023/12/21 00:17:03;;;;;;;9.82;4.40;;;;;;;7.59;100.00;100636.56;4907187;29;21286;-91
2023/12/21 00:19:31;;;;;;;7.90;4.35;;;;;;;7.58;100.00;100629.66;4910292;29;20039;-94
2023/12/21 00:21:56;;;;;;;8.43;4.47;;;;;;;7.60;100.00;100630.50;4907935;29;20020;-90
2023/12/21 00:24:21;;;;;;;11.85;4.70;;;;;;;7.60;100.00;100628.75;4927589;29;20042;-91
2023/12/21 00:26:49;;;;;;;6.15;4.30;;;;;;;7.62;100.00;100617.53;4926867;29;20031;-94
2023/12/21 00:29:15;;;;;;;10.18;4.60;;;;;;;7.64;100.00;100619.22;4907187;29;20075;-93
2023/12/21 00:31:40;;;;;;;7.15;4.13;;;;;;;7.60;100.00;100607.19;4905075;29;20043;-89
2023/12/21 00:34:05;;;;;;;8.80;3.92;;;;;;;7.60;100.00;100599.44;4908099;29;20488;-90
2023/12/21 00:36:31;;;;;;;7.63;4.10;;;;;;;7.60;100.00;100602.88;4910258;29;20027;-89
2023/12/21 00:38:57;;;;;;;6.32;3.83;;;;;;;7.61;100.00;100608.91;4914980;29;20413;-90
2023/12/21 00:41:22;;;;;;;6.53;3.78;;;;;;;7.59;100.00;100602.91;4924961;29;20091;-92
2023/12/21 00:43:47;;;;;;;8.02;3.90;;;;;;;7.58;100.00;100594.31;4909051;29;20483;-92
2023/12/21 00:46:13;;;;;;;8.63;3.92;;;;;;;7.59;100.00;100580.47;4908500;29;20035;-93
2023/12/21 00:48:38;;;;;;;6.88;3.70;;;;;;;7.62;100.00;100571.78;4905388;29;20103;-92
2023/12/21 00:51:05;;;;;;;9.90;4.05;;;;;;;7.61;100.00;100575.25;4912002;29;20046;-91
2023/12/21 00:53:30;;;;;;;9.32;4.20;;;;;;;7.63;100.00;100562.28;4917913;29;20044;-92
2023/12/21 00:55:56;;;;;;;8.75;4.10;;;;;;;7.62;100.00;100564.03;4922179;29;21291;-92
2023/12/21 00:58:21;;;;;;;7.50;3.70;;;;;;;7.62;100.00;100564.03;4905853;29;20028;-94
2023/12/21 01:00:47;;;;;;;8.63;3.75;;;;;;;7.62;100.00;100561.44;4900248;29;20437;-95
2023/12/21 01:03:12;;;;;;;11.32;3.90;;;;;;;7.60;100.00;100551.09;4903159;29;20072;-89
2023/12/21 01:05:37;;;;;;;9.07;4.28;;;;;;;7.62;100.00;100550.22;4914001;29;20103;-93
2023/12/21 01:08:03;;;;;;;9.23;4.30;;;;;;;7.63;100.00;100547.59;4908507;29;20463;-92
2023/12/21 01:10:38;;;;;;;8.80;4.38;;;;;;;7.63;100.00;100544.16;4917624;29;20080;-94
2023/12/21 01:13:04;;;;;;;7.50;4.07;;;;;;;7.63;100.00;100533.78;4928875;29;20050;-91
2023/12/21 01:15:29;;;;;;;7.72;4.40;;;;;;;7.65;100.00;100532.91;4922661;29;20119;-90
2023/12/21 01:17:55;;;;;;;7.35;4.47;;;;;;;7.65;100.00;100519.97;4909490;29;20493;-92
2023/12/21 01:20:23;;;;;;;6.93;4.13;;;;;;;7.65;100.00;100516.50;4910359;29;20457;-91
2023/12/21 01:22:48;;;;;;;9.55;4.72;;;;;;;7.63;100.00;100513.94;4909415;29;20506;-90
2023/12/21 01:25:14;;;;;;;7.85;3.92;;;;;;;7.62;100.00;100517.41;4901546;29;20020;-93
2023/12/21 01:27:39;;;;;;;11.63;4.25;;;;;;;7.59;100.00;100512.28;4904020;29;20023;-95
2023/12/21 01:30:05;;;;;;;9.13;4.40;;;;;;;7.60;100.00;100506.25;4916874;29;20035;-91
2023/12/21 01:32:34;;;;;;;10.57;4.20;;;;;;;7.62;100.00;100506.19;4918191;29;20023;-91
2023/12/21 01:34:59;;;;;;;8.07;4.30;;;;;;;7.61;100.00;100507.94;4923907;29;20055;-90
2023/12/21 01:37:25;;;;;;;8.52;4.78;;;;;;;7.64;100.00;100494.94;4905970;29;20040;-92
2023/12/21 01:39:50;;;;;;;9.43;4.70;;;;;;;7.63;100.00;100488.06;4904819;29;20032;-92
2023/12/21 01:42:19;;;;;;;11.20;4.88;;;;;;;7.61;100.00;100484.66;4923356;29;20063;-93
2023/12/21 01:44:45;;;;;;;7.90;4.47;;;;;;;7.64;100.00;100491.50;4908988;29;20115;-92
2023/12/21 01:47:14;;;;;;;7.13;4.28;;;;;;;7.61;100.00;100495.00;4909568;29;20493;-92
2023/12/21 01:49:40;;;;;;;10.13;4.53;;;;;;;7.61;100.00;100484.66;4908936;29;20039;-94
2023/12/21 01:52:08;;;;;;;8.13;4.40;;;;;;;7.62;100.00;100473.41;4908815;29;20038;-92
2023/12/21 01:54:34;;;;;;;10.80;4.60;;;;;;;7.65;100.00;100470.75;4921533;29;20032;-92
2023/12/21 01:57:08;;;;;;;10.50;4.97;;;;;;;7.66;100.00;100464.72;4935074;29;20104;-92
2023/12/21 01:59:34;;;;;;;13.30;4.82;;;;;;;7.67;100.00;100460.38;4910392;29;20527;-93
2023/12/21 02:01:59;;;;;;;9.85;4.90;;;;;;;7.66;100.00;100463.84;4909772;29;20032;-90
2023/12/21 02:04:25;;;;;;;13.13;5.13;;;;;;;7.64;100.00;100466.47;4907836;29;20062;-91
2023/12/21 02:06:50;;;;;;;10.88;4.88;;;;;;;7.65;100.00;100478.53;4901931;29;20127;-91
2023/12/21 02:09:16;;;;;;;11.68;5.10;;;;;;;7.68;100.00;100485.38;4899598;29;20397;-91
2023/12/21 02:11:42;;;;;;;11.35;5.38;;;;;;;7.67;100.00;100494.91;4904254;29;20052;-89
2023/12/21 02:14:09;;;;;;;9.43;4.85;;;;;;;7.65;100.00;100486.31;4907639;29;20032;-88
2023/12/21 02:16:42;;;;;;;11.15;5.53;;;;;;;7.64;100.00;100489.78;4896617;29;20032;-91
2023/12/21 02:19:10;;;;;;;7.28;4.47;;;;;;;7.66;100.00;100479.38;4913530;29;20054;-90
2023/12/21 02:21:37;;;;;;;10.15;4.80;;;;;;;7.67;100.00;100470.72;4918856;29;20113;-89
2023/12/21 02:24:03;;;;;;;9.85;5.03;;;;;;;7.66;100.00;100461.25;4916015;29;20052;-88
2023/12/21 02:26:29;;;;;;;8.75;5.35;;;;;;;7.65;100.00;100454.38;4900833;29;20071;-90
2023/12/21 02:28:54;;;;;;;10.38;5.53;;;;;;;7.67;100.00;100458.66;4916927;29;20130;-90
2023/12/21 02:31:19;;;;;;;9.85;5.20;;;;;;;7.67;100.00;100448.28;4899613;29;20506;-88
2023/12/21 02:33:45;;;;;;;11.93;6.00;;;;;;;7.65;100.00;100434.53;4906852;29;20126;-90
2023/12/21 02:36:10;;;;;;;8.30;5.55;;;;;;;7.66;100.00;100425.00;4918749;29;20043;-90
2023/12/21 02:38:35;;;;;;;10.70;5.45;;;;;;;7.64;100.00;100421.59;4917241;29;20038;-88
2023/12/21 02:41:01;;;;;;;11.93;5.80;;;;;;;7.65;100.00;100418.97;4918600;29;20032;-91
2023/12/21 02:43:26;;;;;;;10.55;5.80;;;;;;;7.65;100.00;100424.16;4893371;29;20056;-89
2023/12/21 02:45:51;;;;;;;7.95;5.20;;;;;;;7.62;100.00;100406.09;4900561;29;20035;-89
2023/12/21 02:48:17;;;;;;;11.68;5.85;;;;;;;7.65;100.00;100413.81;4900702;29;20043;-89
2023/12/21 02:50:42;;;;;;;11.90;6.35;;;;;;;7.64;100.00;100412.09;4916939;29;20024;-89
2023/12/21 02:53:07;;;;;;;12.73;6.40;;;;;;;7.64;100.00;100413.81;4915697;29;20444;-89
2023/12/21 02:55:35;;;;;;;10.02;6.03;;;;;;;7.64;100.00;100419.88;4909624;29;20032;-89
2023/12/21 02:58:01;;;;;;;13.35;6.53;;;;;;;7.63;100.00;100402.63;4916262;29;20035;-90
2023/12/21 03:00:26;;;;;;;10.63;5.75;;;;;;;7.62;100.00;100398.34;4916280;29;20032;-89
2023/12/21 03:02:51;;;;;;;12.40;5.90;;;;;;;7.64;100.00;100396.56;4915689;29;20087;-89
2023/12/21 03:05:17;;;;;;;12.05;6.18;;;;;;;7.64;100.00;100401.75;4915842;29;20122;-89
2023/12/21 03:07:42;;;;;;;9.98;5.68;;;;;;;7.64;100.00;100398.28;4917392;29;20493;-89
2023/12/21 03:10:08;;;;;;;10.93;5.63;;;;;;;7.64;100.00;100387.94;4916608;29;20047;-90
2023/12/21 03:12:33;;;;;;;11.40;6.05;;;;;;;7.64;100.00;100382.75;4916122;29;20028;-89
2023/12/21 03:14:59;;;;;;;11.80;5.70;;;;;;;7.66;100.00;100373.22;4915950;29;20032;-89
2023/12/21 03:17:24;;;;;;;11.65;5.55;;;;;;;7.66;100.00;100360.28;4916180;29;20043;-90
2023/12/21 03:19:49;;;;;;;13.23;5.85;;;;;;;7.64;100.00;100349.97;4898853;29;20460;-90
2023/12/21 03:22:15;;;;;;;11.90;5.47;;;;;;;7.66;100.00;100331.78;4918149;29;20027;-89
2023/12/21 03:24:40;;;;;;;10.50;5.22;;;;;;;7.64;100.00;100318.91;4896985;29;20067;-89
2023/12/21 03:27:05;;;;;;;10.38;5.38;;;;;;;7.65;100.00;100306.78;4907673;29;20110;-89
2023/12/21 03:29:31;;;;;;;10.50;4.82;;;;;;;7.66;100.00;100292.97;4916206;29;20035;-89
2023/12/21 03:31:56;;;;;;;12.30;5.10;;;;;;;7.65;100.00;100292.13;4914945;29;20032;-88
2023/12/21 03:34:22;;;;;;;12.02;4.93;;;;;;;7.67;100.00;100302.44;4915447;29;20135;-90
2023/12/21 03:36:49;;;;;;;10.80;4.78;;;;;;;7.68;100.00;100298.97;4916665;29;20051;-90
2023/12/21 03:39:14;;;;;;;13.05;5.05;;;;;;;7.66;100.00;100301.59;4901962;29;20080;-90
2023/12/21 03:41:39;;;;;;;10.80;4.88;;;;;;;7.67;100.00;100292.94;4915903;29;20084;-88
2023/12/21 03:44:05;;;;;;;8.88;4.40;;;;;;;7.67;100.00;100281.72;4915443;29;20539;-89
2023/12/21 03:46:30;;;;;;;8.80;4.30;;;;;;;7.65;100.00;100278.31;4916308;29;20489;-89
2023/12/21 03:48:56;;;;;;;11.70;4.50;;;;;;;7.66;100.00;100265.34;4916231;29;20537;-89
2023/12/21 03:51:21;;;;;;;11.75;4.50;;;;;;;7.69;100.00;100270.44;4918718;29;20559;-89
2023/12/21 03:53:46;;;;;;;13.77;4.78;;;;;;;7.69;100.00;100264.41;4914595;29;21660;-90
2023/12/21 03:56:12;;;;;;;11.63;4.47;;;;;;;7.70;100.00;100256.59;4917391;29;20035;-91
2023/12/21 03:58:40;;;;;;;15.05;4.57;;;;;;;7.69;100.00;100259.25;4922408;29;20031;-89
2023/12/21 04:01:07;;;;;;;10.48;4.43;;;;;;;7.73;100.00;100251.34;4915159;29;20062;-88
2023/12/21 04:03:32;;;;;;;12.02;4.60;;;;;;;7.72;100.00;100239.28;4915489;29;20032;-90
2023/12/21 04:05:58;;;;;;;12.07;4.28;;;;;;;7.72;100.00;100234.13;4920677;29;20055;-89
2023/12/21 04:08:23;;;;;;;11.00;4.32;;;;;;;7.73;100.00;100241.00;4917346;29;20059;-89
2023/12/21 04:10:48;;;;;;;12.13;4.32;;;;;;;7.73;100.00;100229.81;4910634;29;20035;-88
2023/12/21 04:13:15;;;;;;;10.93;4.20;;;;;;;7.72;100.00;100241.88;4912638;29;20050;-90
2023/12/21 04:15:40;;;;;;;8.77;4.30;;;;;;;7.72;100.00;100228.94;4917777;29;20035;-89
2023/12/21 04:18:05;;;;;;;11.30;4.15;;;;;;;7.72;100.00;100221.16;4921263;29;20116;-89
2023/12/21 04:20:31;;;;;;;8.50;4.03;;;;;;;7.73;100.00;100212.53;4915976;29;20107;-89
2023/12/21 04:22:56;;;;;;;10.80;4.20;;;;;;;7.73;100.00;100212.53;4924712;29;20098;-89
2023/12/21 04:25:22;;;;;;;9.30;4.10;;;;;;;7.74;100.00;100195.25;4914174;29;20444;-89
2023/12/21 04:27:47;;;;;;;14.90;5.40;;;;;;;7.74;100.00;100190.91;4914422;29;20028;-89
2023/12/21 04:30:13;;;;;;;12.00;4.60;;;;;;;7.75;100.00;100196.97;4922889;29;20037;-89
2023/12/21 04:32:39;;;;;;;11.20;4.60;;;;;;;7.75;100.00;100190.03;4916780;29;20031;-89
2023/12/21 04:35:07;;;;;;;12.20;4.60;;;;;;;7.75;100.00;100182.25;4924433;29;20039;-90
2023/12/21 04:37:33;;;;;;;14.68;4.90;;;;;;;7.77;100.00;100163.25;4939390;29;20531;-88
2023/12/21 04:39:58;;;;;;;13.02;4.95;;;;;;;7.80;100.00;100142.47;4926881;29;20043;-89
2023/12/21 04:42:23;;;;;;;12.02;5.80;;;;;;;7.81;100.00;100144.16;4926314;29;20042;-89
2023/12/21 04:44:48;;;;;;;14.55;5.35;;;;;;;7.83;100.00;100142.41;4920255;29;20060;-88
2023/12/21 04:47:14;;;;;;;14.23;5.50;;;;;;;7.84;100.00;100150.09;4928293;29;20464;-88
2023/12/21 04:49:39;;;;;;;14.77;6.00;;;;;;;7.87;100.00;100144.84;4929754;29;20082;-88
2023/12/21 04:52:05;;;;;;;15.00;6.20;;;;;;;7.89;100.00;100134.44;4924180;29;20076;-90
2023/12/21 04:54:30;;;;;;;15.25;6.18;;;;;;;7.91;100.00;100127.50;4911396;29;20118;-90
2023/12/21 04:56:55;;;;;;;12.60;5.90;;;;;;;7.94;100.00;100121.41;4914991;29;20031;-91
2023/12/21 04:59:21;;;;;;;15.02;6.20;;;;;;;7.93;100.00;100110.16;4928511;29;20166;-89
2023/12/21 05:01:50;;;;;;;16.65;6.22;;;;;;;7.97;100.00;100095.38;4909694;29;20051;-92
2023/12/21 05:04:15;;;;;;;16.48;6.10;;;;;;;7.97;100.00;100082.44;4929798;29;20110;-91
2023/12/21 05:06:41;;;;;;;12.90;5.85;;;;;;;8.00;100.00;100078.03;4920088;29;20119;-89
2023/12/21 05:09:06;;;;;;;15.75;6.65;;;;;;;8.01;100.00;100078.88;4923006;29;20491;-89
2023/12/21 05:11:32;;;;;;;14.80;6.07;;;;;;;8.03;100.00;100085.72;4913713;29;20534;-90
2023/12/21 05:13:57;;;;;;;11.18;5.22;;;;;;;8.05;100.00;100091.69;4925268;29;20063;-89
2023/12/21 05:16:22;;;;;;;10.98;5.28;;;;;;;8.07;100.00;100096.00;4920203;29;20090;-89
2023/12/21 05:18:49;;;;;;;11.27;5.40;;;;;;;8.08;100.00;100082.16;4922512;29;20036;-90
2023/12/21 05:21:14;;;;;;;14.77;5.80;;;;;;;8.10;100.00;100094.19;4909994;29;20032;-91
2023/12/21 05:23:40;;;;;;;16.05;5.40;;;;;;;8.13;100.00;100094.06;4920399;29;20028;-91
2023/12/21 05:26:13;;;;;;;12.10;5.03;;;;;;;8.14;100.00;100077.66;4920161;29;20484;-88
2023/12/21 05:28:39;;;;;;;10.63;4.60;;;;;;;8.18;100.00;100075.84;4913524;29;20042;-90
2023/12/21 05:31:06;;;;;;;9.00;4.32;;;;;;;8.19;100.00;100051.63;4927545;29;20404;-89
2023/12/21 05:33:31;;;;;;;13.80;4.47;;;;;;;8.19;100.00;100051.63;4924056;29;20091;-91
2023/12/21 05:35:58;;;;;;;10.23;4.30;;;;;;;8.23;100.00;100047.19;4909533;29;20028;-90
2023/12/21 05:38:24;;;;;;;15.48;4.72;;;;;;;8.26;100.00;100057.47;4916289;29;20036;-90
2023/12/21 05:40:49;;;;;;;8.63;3.78;;;;;;;8.27;100.00;100052.25;4916228;29;20036;-90
2023/12/21 05:43:14;;;;;;;8.45;3.88;;;;;;;8.26;100.00;100053.13;4924284;29;20030;-90
2023/12/21 05:45:40;;;;;;;11.60;3.60;;;;;;;8.29;100.00;100068.59;4927015;29;20062;-92
2023/12/21 05:48:06;;;;;;;10.55;3.35;;;;;;;8.27;100.00;100049.66;4923342;29;20059;-90
2023/12/21 05:50:31;;;;;;;9.27;3.38;;;;;;;8.26;100.00;100058.31;4925667;29;20404;-90
2023/12/21 05:52:56;;;;;;;8.38;3.17;;;;;;;8.28;100.00;100063.47;4908709;29;20059;-91
2023/12/21 05:55:22;;;;;;;10.80;3.25;;;;;;;8.27;100.00;100065.19;4910278;29;20039;-90
2023/12/21 05:57:48;;;;;;;11.63;2.85;;;;;;;8.28;100.00;100076.44;4925026;29;20054;-90
2023/12/21 06:00:14;;;;;;;9.30;2.70;;;;;;;8.31;100.00;100059.03;4908122;29;20054;-89
2023/12/21 06:02:39;;;;;;;7.13;2.70;;;;;;;8.30;100.00;100059.06;4916858;29;20039;-90
2023/12/21 06:05:05;;;;;;;6.65;2.50;;;;;;;8.30;100.00;100062.53;4932536;29;20067;-90
2023/12/21 06:07:30;;;;;;;5.55;2.30;;;;;;;8.34;100.00;100068.47;4909693;29;20027;-90
2023/12/21 06:09:56;;;;;;;7.05;1.98;;;;;;;8.36;100.00;100058.91;4923927;29;20372;-91
2023/12/21 06:12:22;;;;;;;7.13;2.20;;;;;;;8.40;100.00;100057.91;4926386;29;20036;-92
2023/12/21 06:14:48;;;;;;;8.30;2.42;;;;;;;8.40;100.00;100037.19;4922926;29;20032;-89
2023/12/21 06:17:14;;;;;;;7.95;2.10;;;;;;;8.40;100.00;100036.31;4924769;29;20091;-92
2023/12/21 06:19:42;;;;;;;5.80;1.88;;;;;;;8.42;100.00;100021.56;4910214;29;20024;-90
2023/12/21 06:22:08;;;;;;;6.20;2.10;;;;;;;8.38;100.00;99999.22;4913977;29;20408;-89
2023/12/21 06:24:33;;;;;;;4.70;1.90;;;;;;;8.38;100.00;100005.28;4932350;29;20494;-90
2023/12/21 06:26:58;;;;;;;8.82;2.17;;;;;;;8.36;100.00;100001.88;4927943;29;20031;-90
2023/12/21 06:29:24;;;;;;;5.75;2.20;;;;;;;8.31;100.00;99999.44;4932798;29;20138;-89
2023/12/21 06:31:49;;;;;;;6.72;2.17;;;;;;;8.29;100.00;100001.22;4932843;29;20039;-89
2023/12/21 06:34:14;;;;;;;7.72;2.35;;;;;;;8.27;100.00;99997.00;4916462;29;20063;-90
2023/12/21 06:36:40;;;;;;;5.38;2.30;;;;;;;8.27;100.00;99997.81;4927751;29;20035;-91
2023/12/21 06:39:05;;;;;;;4.60;2.60;;;;;;;8.26;100.00;99984.94;4918123;29;20039;-90
2023/12/21 06:41:31;;;;;;;5.32;3.17;;;;;;;8.25;100.00;99988.41;4934724;29;20063;-92
2023/12/21 06:43:57;;;;;;;7.78;3.25;;;;;;;8.24;100.00;99997.06;4934402;29;20187;-89
2023/12/21 06:46:22;;;;;;;7.82;3.00;;;;;;;8.23;100.00;100000.56;4931738;29;20070;-90
2023/12/21 06:48:47;;;;;;;6.72;2.67;;;;;;;8.23;100.00;99995.38;4914108;29;20484;-89
2023/12/21 06:51:13;;;;;;;6.07;2.80;;;;;;;8.24;100.00;99995.31;4918068;29;20032;-89
2023/12/21 06:53:39;;;;;;;13.75;3.20;;;;;;;8.22;100.00;99984.16;4933182;29;20436;-90
2023/12/21 06:56:06;;;;;;;9.15;3.30;;;;;;;8.23;100.00;99983.25;4912498;29;20036;-89
2023/12/21 06:58:31;;;;;;;5.93;3.35;;;;;;;8.22;100.00;99968.59;4932471;29;20110;-90
2023/12/21 07:00:57;;;;;;;7.97;3.42;;;;;;;8.21;100.00;99969.50;4931835;29;20119;-90
2023/12/21 07:03:22;;;;;;;5.95;2.70;;;;;;;8.22;100.00;99955.63;4931421;29;20031;-91
2023/12/21 07:05:50;;;;;;;8.07;3.58;;;;;;;8.25;100.00;99952.97;4933469;29;20079;-90
2023/12/21 07:08:16;;;;;;;8.60;3.20;;;;;;;8.24;100.00;99943.50;4931997;29;20027;-90
2023/12/21 07:10:43;;;;;;;11.13;4.00;;;;;;;8.26;100.00;99933.94;4936213;29;20054;-91
2023/12/21 07:13:09;;;;;;;7.63;3.42;;;;;;;8.24;100.00;99920.16;4933457;29;20031;-90
2023/12/21 07:15:34;;;;;;;7.55;3.17;;;;;;;8.24;100.00;99902.03;4933490;29;20083;-90
2023/12/21 07:17:59;;;;;;;8.05;3.38;;;;;;;8.23;100.00;99918.47;4932012;29;20115;-90
2023/12/21 07:20:28;;;;;;;8.27;2.92;;;;;;;8.25;100.00;99923.63;4918787;29;20495;-89
2023/12/21 07:22:53;;;;;;;9.50;3.03;;;;;;;8.24;100.00;99914.16;4918647;29;20027;-92
2023/12/21 07:25:19;;;;;;;9.05;3.28;;;;;;;8.26;100.00;99914.97;4932860;29;20036;-91
2023/12/21 07:27:44;;;;;;;8.50;2.90;;;;;;;8.27;100.00;99904.53;4912559;29;20514;-90
2023/12/21 07:30:10;;;;;;;7.13;2.70;;;;;;;8.30;100.00;99883.72;4934048;29;20399;-90
2023/12/21 07:32:35;;;;;;;6.40;2.53;;;;;;;8.30;100.00;99872.47;4932499;29;20099;-89
2023/12/21 07:35:01;;;;;;;6.93;2.60;;;;;;;8.34;100.00;99874.94;4933319;29;20460;-90
2023/12/21 07:37:26;;;;;;;12.85;3.25;;;;;;;8.35;100.00;99871.47;4911945;29;20032;-89
2023/12/21 07:39:52;;;;;;;10.90;2.88;;;;;;;8.35;100.00;99861.09;4930487;29;20020;-90
2023/12/21 07:42:17;;;;;;;8.20;2.60;;;;;;;8.34;100.00;99854.22;4932247;29;20102;-88
2023/12/21 07:44:43;;;;;;;9.55;2.75;;;;;;;8.42;100.00;99860.88;4928704;29;20431;-90
2023/12/21 07:47:09;;;;;;;6.85;2.50;;;;;;;8.39;100.00;99856.66;4911727;29;20039;-91
2023/12/21 07:49:34;;;;;;;4.78;2.22;;;;;;;8.42;100.00;99855.69;4913443;29;20027;-90
2023/12/21 07:52:02;;;;;;;5.78;2.30;;;;;;;8.43;100.00;99870.34;4933842;29;20019;-93
2023/12/21 07:54:27;;;;;;;6.43;2.65;;;;;;;8.43;100.00;99852.22;4932051;29;20024;-89
2023/12/21 07:56:52;;;;;;;7.05;2.28;;;;;;;8.44;100.00;99851.31;4933918;29;20498;-89
2023/12/21 07:59:19;;;;;;;8.32;2.55;;;;;;;8.43;100.00;99841.84;4929979;29;20046;-89
2023/12/21 08:01:46;;;;;;;13.82;2.80;;;;;;;8.41;100.00;99849.69;4915963;29;20411;-89
2023/12/21 08:04:11;;;;;;;7.82;2.45;;;;;;;8.42;100.00;99853.97;4933710;29;20492;-88
2023/12/21 08:06:36;;;;;;;5.50;2.50;;;;;;;8.43;100.00;99836.66;4912764;29;20047;-89
2023/12/21 08:09:02;;;;;;;7.10;2.50;;;;;;;8.41;100.00;99841.91;4916860;29;20472;-88
2023/12/21 08:11:27;;;;;;;7.18;2.50;;;;;;;8.41;100.00;99836.72;4919869;29;20392;-91
2023/12/21 08:13:53;;;;;;;6.82;2.53;;;;;;;8.40;100.00;99841.94;4913824;29;20087;-89
2023/12/21 08:16:18;;;;;;;5.20;2.63;;;;;;;8.40;100.00;99839.34;4918912;29;20036;-89
2023/12/21 08:18:44;;;;;;;7.38;2.60;;;;;;;8.41;100.00;99820.31;4912206;29;20031;-89
2023/12/21 08:21:10;;;;;;;4.90;2.50;;;;;;;8.45;100.00;99832.28;4922792;29;20024;-90
2023/12/21 08:23:35;;;;;;;8.70;2.60;;;;;;;8.40;100.00;99813.44;4926708;29;20031;-90
2023/12/21 08:26:03;;;;;;;6.65;2.60;;;;;;;8.43;100.00;99821.09;4915428;29;20034;-90
2023/12/21 08:28:29;;;;;;;5.20;2.33;;;;;;;8.41;100.00;99815.13;4917662;29;21622;-90
2023/12/21 08:30:54;;;;;;;5.35;2.22;;;;;;;8.41;100.00;99818.56;4930300;29;20028;-89
2023/12/21 08:33:20;;;;;;;4.97;2.20;;;;;;;8.44;100.00;99812.44;4918107;29;20392;-91
2023/12/21 08:35:46;;;;;;;7.13;2.30;;;;;;;8.42;100.00;99824.59;4919841;29;20032;-90
2023/12/21 08:38:12;;;;;;;4.18;2.25;;;;;;;8.43;100.00;99828.88;4920117;29;20083;-89
2023/12/21 08:40:37;;;;;;;5.40;2.25;;;;;;;8.43;100.00;99826.28;4909786;29;20032;-89
2023/12/21 08:43:03;;;;;;;6.30;2.15;;;;;;;8.40;100.00;99806.50;4921469;29;20031;-89
2023/12/21 08:45:28;;;;;;;4.15;2.00;;;;;;;8.44;100.00;99795.16;4928176;29;20400;-89
2023/12/21 08:47:54;;;;;;;7.72;1.85;;;;;;;8.44;100.00;99791.69;4926834;29;20024;-89
2023/12/21 08:50:19;;;;;;;5.35;1.83;;;;;;;8.45;100.00;99798.56;4930887;29;20388;-89
2023/12/21 08:52:45;;;;;;;6.60;2.40;;;;;;;8.47;100.00;99771.69;4926942;29;20024;-89
2023/12/21 08:55:11;;;;;;;7.20;2.00;;;;;;;8.47;100.00;99771.69;4923244;29;20031;-89
2023/12/21 08:57:37;;;;;;;4.35;1.92;;;;;;;8.47;100.00;99760.50;4920792;29;20241;-90
2023/12/21 09:00:05;;;;;;;6.53;1.85;;;;;;;8.47;100.00;99773.47;4917343;29;20118;-89
2023/12/21 09:02:33;;;;;;;4.43;2.00;;;;;;;8.49;100.00;99774.28;4928114;29;20027;-88
2023/12/21 09:04:58;;;;;;;4.03;1.73;;;;;;;8.47;100.00;99773.47;4912717;29;20043;-89
2023/12/21 09:07:24;;;;;;;7.55;1.63;;;;;;;8.51;100.00;99767.31;4911028;29;20480;-89
2023/12/21 09:09:51;;;;;;;3.60;1.80;;;;;;;8.53;100.00;99760.31;4903017;29;20134;-90
2023/12/21 09:12:18;;;;;;;5.25;1.70;;;;;;;8.53;100.00;99757.72;4918911;29;20035;-89
2023/12/21 09:14:44;;;;;;;3.50;1.50;;;;;;;8.52;100.00;99755.19;4905474;29;20143;-89
2023/12/21 09:17:09;;;;;;;4.28;1.73;;;;;;;8.55;100.00;99748.13;4917702;29;20539;-89
2023/12/21 09:19:34;;;;;;;5.25;1.92;;;;;;;8.60;100.00;99756.59;4908509;29;20084;-88
2023/12/21 09:22:00;;;;;;;2.63;1.63;;;;;;;8.63;100.00;99732.31;4905150;29;20024;-87
2023/12/21 09:24:25;;;;;;;8.75;1.70;;;;;;;8.64;100.00;99750.41;4917106;29;20028;-88
2023/12/21 09:26:51;;;;;;;6.30;1.75;;;;;;;8.68;100.00;99755.50;4910308;29;20100;-89
2023/12/21 09:29:16;;;;;;;4.05;1.25;;;;;;;8.69;100.00;99729.50;4916872;29;20353;-89
2023/12/21 09:31:41;;;;;;;7.00;1.50;;;;;;;8.72;100.00;99723.34;4915878;29;20494;-89
2023/12/21 09:34:07;;;;;;;6.72;1.63;;;;;;;8.76;100.00;99753.47;4911912;29;20337;-88
2023/12/21 09:36:33;;;;;;;2.50;1.05;;;;;;;8.78;100.00;99708.44;4911211;29;20377;-88
2023/12/21 09:38:58;;;;;;;5.38;1.35;;;;;;;8.80;100.00;99731.72;4913461;29;20082;-91
2023/12/21 09:41:23;;;;;;;4.03;1.15;;;;;;;8.80;100.00;99726.53;4906141;29;20031;-88
2023/12/21 09:43:52;;;;;;;4.35;1.42;;;;;;;8.82;100.00;99719.53;4924602;29;20035;-87
2023/12/21 09:46:18;;;;;;;4.65;1.48;;;;;;;8.83;100.00;99721.22;4907870;29;20539;-89
2023/12/21 09:48:45;;;;;;;4.50;1.13;;;;;;;8.84;100.00;99717.75;4908197;29;20062;-88
2023/12/21 09:51:14;;;;;;;8.13;1.10;;;;;;;8.85;100.00;99714.25;4923667;29;20020;-88
2023/12/21 09:53:40;;;;;;;5.28;1.30;;;;;;;8.90;100.00;99720.09;4913042;29;20103;-89
2023/12/21 09:56:07;;;;;;;4.20;1.05;;;;;;;8.95;100.00;99696.59;4924812;29;20040;-90
2023/12/21 09:58:32;;;;;;;3.05;0.80;;;;;;;8.96;100.00;99717.28;4904597;29;20420;-91
2023/12/21 10:00:58;;;;;;;8.55;1.20;;;;;;;9.01;100.00;99713.69;4924720;29;20043;-89
2023/12/21 10:03:23;;;;;;;4.93;0.90;;;;;;;9.09;100.00;99702.09;4909803;29;20047;-89
2023/12/21 10:05:49;;;;;;;4.78;0.98;;;;;;;9.17;100.00;99704.41;4919211;29;20044;-90
2023/12/21 10:08:18;;;;;;;4.95;1.00;;;;;;;9.18;100.00;99706.09;4931286;29;20087;-89
2023/12/21 10:10:43;;;;;;;4.55;0.80;;;;;;;9.29;100.00;99712.59;4924729;29;20441;-89
2023/12/21 10:13:09;;;;;;;5.07;1.00;;;;;;;9.33;100.00;99709.00;4933444;29;20063;-89
2023/12/21 10:15:34;;;;;;;6.68;0.85;;;;;;;9.33;100.00;99703.81;4912544;29;20028;-90
2023/12/21 10:18:00;;;;;;;5.03;0.82;;;;;;;9.31;100.00;99679.66;4924660;29;20063;-89
2023/12/21 10:20:26;;;;;;;8.10;1.00;;;;;;;9.34;100.00;99724.50;4896369;29;20020;-90
2023/12/21 10:22:52;;;;;;;4.82;0.77;;;;;;;9.42;100.00;99687.84;4909578;29;20028;-90
2023/12/21 10:25:18;;;;;;;4.82;0.90;;;;;;;9.51;100.00;99697.03;4920662;29;20554;-90
2023/12/21 10:27:55;;;;;;;8.18;0.63;;;;;;;9.55;100.00;99701.19;4906623;29;20036;-90
2023/12/21 10:30:24;;;;;;;6.63;0.95;;;;;;;9.56;100.00;99690.75;4911586;29;20028;-90
2023/12/21 10:32:55;;;;;;;2.90;0.82;;;;;;;9.58;100.00;99677.72;4905234;29;20024;-90
2023/12/21 10:35:21;;;;;;;7.28;1.25;;;;;;;9.67;100.00;99684.28;4902203;29;20027;-89
2023/12/21 10:37:48;;;;;;;3.65;0.77;;;;;;;9.70;100.00;99708.38;4920120;29;20032;-89
2023/12/21 10:40:14;;;;;;;3.97;0.60;;;;;;;9.74;100.00;99701.28;4919021;29;20174;-90
2023/12/21 10:42:50;;;;;;;4.07;0.80;;;;;;;9.80;100.00;99692.44;4904997;29;20023;-90
2023/12/21 10:45:16;;;;;;;3.60;0.90;;;;;;;9.82;100.00;99675.88;4913115;29;20066;-88
2023/12/21 10:47:55;;;;;;;5.18;0.73;;;;;;;9.91;100.00;99691.97;4902008;29;20024;-88
2023/12/21 10:50:21;;;;;;;3.15;0.70;;;;;;;9.91;100.00;99687.63;4918839;29;20016;-92
2023/12/21 10:52:47;;;;;;;4.85;0.70;;;;;;;9.92;100.00;99702.31;4907944;29;20028;-91
2023/12/21 10:55:19;;;;;;;2.78;0.63;;;;;;;9.89;100.00;99691.22;4927378;29;20051;-91
2023/12/21 10:57:46;;;;;;;3.65;0.75;;;;;;;9.86;100.00;99693.03;4925817;29;20084;-89
2023/12/21 11:00:15;;;;;;;4.93;0.70;;;;;;;9.82;100.00;99691.44;4927848;29;20031;-89
2023/12/21 11:02:46;;;;;;;3.17;0.43;;;;;;;9.76;100.00;99699.47;4929068;29;20023;-93
2023/12/21 11:05:22;;;;;;;2.40;0.55;;;;;;;9.70;100.00;99673.78;4921159;29;20052;-89
2023/12/21 11:07:53;;;;;;;3.30;0.50;;;;;;;9.76;100.00;99701.25;4918408;29;20349;-90
2023/12/21 11:10:23;;;;;;;2.92;0.70;;;;;;;9.69;100.00;99677.28;4920881;29;20086;-89
2023/12/21 11:12:50;;;;;;;1.67;0.40;;;;;;;9.71;100.00;99693.66;4918229;29;20052;-91
2023/12/21 11:15:16;;;;;;;2.65;0.50;;;;;;;9.69;100.00;99661.69;4922731;29;20360;-91
2023/12/21 11:17:49;;;;;;;4.88;0.52;;;;;;;9.65;100.00;99649.75;4922355;29;20043;-91
2023/12/21 11:20:18;;;;;;;2.15;0.50;;;;;;;9.67;100.00;99647.94;4899707;29;20040;-88